sensor_id;sensor_type;location;lat;lon;timestamp;P1;durP1;ratioP1;P2;durP2;ratioP2
41532;SDS011;27262;-35.248;149.138;2023-02-18T00:02:25;5.20;;;2.85;;
41532;SDS011;27262;-35.248;149.138;2023-02-18T00:04:55;5.18;;;2.90;;
41532;SDS011;27262;-35.248;149.138;2023-02-18T00:07:25;4.70;;;2.90;;
41532;SDS011;27262;-35.248;149.138;2023-02-18T00:09:57;4.00;;;2.58;;
41532;SDS011;27262;-35.248;149.138;2023-02-18T00:12:27;5.13;;;2.53;;
41532;SDS011;27262;-35.248;149.138;2023-02-18T00:14:59;7.18;;;2.72;;
41532;SDS011;27262;-35.248;149.138;2023-02-18T00:17:29;6.25;;;2.75;;
41532;SDS011;27262;-35.248;149.138;2023-02-18T00:20:00;4.75;;;2.67;;
41532;SDS011;27262;-35.248;149.138;2023-02-18T00:22:32;2.28;;;2.08;;
41532;SDS011;27262;-35.248;149.138;2023-02-18T00:25:02;5.05;;;2.70;;
41532;SDS011;27262;-35.248;149.138;2023-02-18T00:27:33;4.68;;;2.50;;
41532;SDS011;27262;-35.248;149.138;2023-02-18T00:30:03;4.97;;;2.90;;
41532;SDS011;27262;-35.248;149.138;2023-02-18T00:32:34;8.25;;;2.80;;
41532;SDS011;27262;-35.248;149.138;2023-02-18T00:35:05;3.55;;;2.78;;
41532;SDS011;27262;-35.248;149.138;2023-02-18T00:37:35;4.55;;;2.38;;
41532;SDS011;27262;-35.248;149.138;2023-02-18T00:40:06;3.95;;;2.60;;
41532;SDS011;27262;-35.248;149.138;2023-02-18T00:42:37;5.15;;;2.60;;
41532;SDS011;27262;-35.248;149.138;2023-02-18T00:45:08;4.55;;;2.65;;
41532;SDS011;27262;-35.248;149.138;2023-02-18T00:47:38;6.07;;;2.58;;
41532;SDS011;27262;-35.248;149.138;2023-02-18T00:50:09;3.47;;;2.47;;
41532;SDS011;27262;-35.248;149.138;2023-02-18T00:52:39;5.18;;;2.65;;
41532;SDS011;27262;-35.248;149.138;2023-02-18T00:55:09;4.68;;;2.63;;
41532;SDS011;27262;-35.248;149.138;2023-02-18T00:57:40;6.03;;;2.72;;
41532;SDS011;27262;-35.248;149.138;2023-02-18T01:00:10;5.07;;;2.40;;
41532;SDS011;27262;-35.248;149.138;2023-02-18T01:02:41;2.88;;;2.42;;
41532;SDS011;27262;-35.248;149.138;2023-02-18T01:05:11;3.88;;;2.80;;
41532;SDS011;27262;-35.248;149.138;2023-02-18T01:07:42;3.38;;;2.65;;
41532;SDS011;27262;-35.248;149.138;2023-02-18T01:10:12;3.28;;;2.35;;
41532;SDS011;27262;-35.248;149.138;2023-02-18T01:12:45;4.65;;;2.42;;
41532;SDS011;27262;-35.248;149.138;2023-02-18T01:15:15;4.68;;;2.40;;
41532;SDS011;27262;-35.248;149.138;2023-02-18T01:17:47;4.38;;;2.20;;
41532;SDS011;27262;-35.248;149.138;2023-02-18T01:20:19;4.40;;;2.40;;
41532;SDS011;27262;-35.248;149.138;2023-02-18T01:22:49;2.40;;;2.20;;
41532;SDS011;27262;-35.248;149.138;2023-02-18T01:25:20;3.45;;;2.30;;
41532;SDS011;27262;-35.248;149.138;2023-02-18T01:27:51;3.28;;;2.00;;
41532;SDS011;27262;-35.248;149.138;2023-02-18T01:30:21;3.55;;;2.42;;
41532;SDS011;27262;-35.248;149.138;2023-02-18T01:32:52;2.70;;;2.05;;
41532;SDS011;27262;-35.248;149.138;2023-02-18T01:35:24;3.67;;;2.75;;
41532;SDS011;27262;-35.248;149.138;2023-02-18T01:37:54;8.85;;;2.63;;
41532;SDS011;27262;-35.248;149.138;2023-02-18T01:40:26;4.00;;;2.13;;
41532;SDS011;27262;-35.248;149.138;2023-02-18T01:42:57;7.45;;;2.80;;
41532;SDS011;27262;-35.248;149.138;2023-02-18T01:45:35;3.83;;;2.00;;
41532;SDS011;27262;-35.248;149.138;2023-02-18T01:48:20;3.22;;;2.22;;
41532;SDS011;27262;-35.248;149.138;2023-02-18T01:50:53;4.40;;;2.10;;
41532;SDS011;27262;-35.248;149.138;2023-02-18T01:53:35;8.27;;;2.53;;
41532;SDS011;27262;-35.248;149.138;2023-02-18T01:56:37;8.00;;;2.50;;
41532;SDS011;27262;-35.248;149.138;2023-02-18T01:59:13;5.32;;;2.20;;
41532;SDS011;27262;-35.248;149.138;2023-02-18T02:01:52;4.47;;;2.45;;
41532;SDS011;27262;-35.248;149.138;2023-02-18T02:04:23;5.22;;;2.00;;
41532;SDS011;27262;-35.248;149.138;2023-02-18T02:06:54;6.75;;;2.35;;
41532;SDS011;27262;-35.248;149.138;2023-02-18T02:09:25;5.13;;;2.20;;
41532;SDS011;27262;-35.248;149.138;2023-02-18T02:23:23;3.47;;;2.42;;
41532;SDS011;27262;-35.248;149.138;2023-02-18T02:43:00;2.22;;;1.77;;
41532;SDS011;27262;-35.248;149.138;2023-02-18T02:45:37;2.60;;;1.92;;
41532;SDS011;27262;-35.248;149.138;2023-02-18T02:51:40;4.82;;;2.13;;
41532;SDS011;27262;-35.248;149.138;2023-02-18T02:54:21;5.47;;;2.10;;
41532;SDS011;27262;-35.248;149.138;2023-02-18T02:57:07;8.40;;;2.28;;
41532;SDS011;27262;-35.248;149.138;2023-02-18T03:00:02;7.22;;;2.20;;
41532;SDS011;27262;-35.248;149.138;2023-02-18T03:11:40;5.40;;;2.55;;
41532;SDS011;27262;-35.248;149.138;2023-02-18T03:14:21;8.07;;;2.33;;
41532;SDS011;27262;-35.248;149.138;2023-02-18T03:17:25;8.38;;;2.20;;
41532;SDS011;27262;-35.248;149.138;2023-02-18T03:20:07;3.38;;;2.13;;
41532;SDS011;27262;-35.248;149.138;2023-02-18T03:22:47;3.60;;;2.28;;
41532;SDS011;27262;-35.248;149.138;2023-02-18T03:25:19;2.38;;;1.85;;
41532;SDS011;27262;-35.248;149.138;2023-02-18T03:27:52;3.03;;;2.05;;
41532;SDS011;27262;-35.248;149.138;2023-02-18T03:30:32;3.10;;;2.05;;
41532;SDS011;27262;-35.248;149.138;2023-02-18T03:33:26;3.08;;;1.88;;
41532;SDS011;27262;-35.248;149.138;2023-02-18T03:36:00;3.25;;;2.17;;
41532;SDS011;27262;-35.248;149.138;2023-02-18T03:41:08;4.63;;;2.05;;
41532;SDS011;27262;-35.248;149.138;2023-02-18T03:43:39;2.03;;;1.83;;
41532;SDS011;27262;-35.248;149.138;2023-02-18T03:46:17;2.30;;;2.05;;
41532;SDS011;27262;-35.248;149.138;2023-02-18T03:48:48;2.75;;;1.70;;
41532;SDS011;27262;-35.248;149.138;2023-02-18T03:51:19;3.35;;;1.92;;
41532;SDS011;27262;-35.248;149.138;2023-02-18T03:53:49;2.67;;;2.05;;
41532;SDS011;27262;-35.248;149.138;2023-02-18T03:56:20;3.55;;;2.30;;
41532;SDS011;27262;-35.248;149.138;2023-02-18T03:58:50;2.72;;;2.28;;
41532;SDS011;27262;-35.248;149.138;2023-02-18T04:01:20;3.85;;;1.95;;
41532;SDS011;27262;-35.248;149.138;2023-02-18T04:03:51;2.67;;;1.70;;
41532;SDS011;27262;-35.248;149.138;2023-02-18T04:06:23;4.32;;;2.05;;
41532;SDS011;27262;-35.248;149.138;2023-02-18T04:08:53;3.05;;;2.00;;
41532;SDS011;27262;-35.248;149.138;2023-02-18T04:11:24;2.00;;;1.70;;
41532;SDS011;27262;-35.248;149.138;2023-02-18T04:13:54;2.55;;;2.28;;
41532;SDS011;27262;-35.248;149.138;2023-02-18T04:16:24;2.28;;;2.08;;
41532;SDS011;27262;-35.248;149.138;2023-02-18T04:18:55;3.70;;;2.30;;
41532;SDS011;27262;-35.248;149.138;2023-02-18T04:21:25;2.83;;;2.10;;
41532;SDS011;27262;-35.248;149.138;2023-02-18T04:23:55;2.10;;;1.90;;
41532;SDS011;27262;-35.248;149.138;2023-02-18T04:26:26;2.28;;;2.00;;
41532;SDS011;27262;-35.248;149.138;2023-02-18T04:28:56;2.00;;;1.83;;
41532;SDS011;27262;-35.248;149.138;2023-02-18T04:31:27;2.00;;;1.85;;
41532;SDS011;27262;-35.248;149.138;2023-02-18T04:33:57;2.38;;;1.92;;
41532;SDS011;27262;-35.248;149.138;2023-02-18T04:36:28;2.10;;;1.95;;
41532;SDS011;27262;-35.248;149.138;2023-02-18T04:38:58;2.22;;;2.03;;
41532;SDS011;27262;-35.248;149.138;2023-02-18T04:41:28;2.70;;;2.00;;
41532;SDS011;27262;-35.248;149.138;2023-02-18T04:43:59;3.10;;;1.88;;
41532;SDS011;27262;-35.248;149.138;2023-02-18T04:46:29;3.25;;;1.88;;
41532;SDS011;27262;-35.248;149.138;2023-02-18T04:49:00;2.50;;;1.98;;
41532;SDS011;27262;-35.248;149.138;2023-02-18T04:51:30;3.10;;;1.92;;
41532;SDS011;27262;-35.248;149.138;2023-02-18T04:54:01;2.92;;;2.00;;
41532;SDS011;27262;-35.248;149.138;2023-02-18T04:56:32;2.10;;;1.90;;
41532;SDS011;27262;-35.248;149.138;2023-02-18T04:59:02;2.17;;;1.88;;
41532;SDS011;27262;-35.248;149.138;2023-02-18T05:01:32;1.95;;;1.85;;
41532;SDS011;27262;-35.248;149.138;2023-02-18T05:04:03;2.95;;;2.33;;
41532;SDS011;27262;-35.248;149.138;2023-02-18T05:06:33;2.38;;;1.83;;
41532;SDS011;27262;-35.248;149.138;2023-02-18T05:09:05;1.83;;;1.63;;
41532;SDS011;27262;-35.248;149.138;2023-02-18T05:11:35;2.25;;;2.00;;
41532;SDS011;27262;-35.248;149.138;2023-02-18T05:14:06;2.30;;;1.80;;
41532;SDS011;27262;-35.248;149.138;2023-02-18T05:16:37;2.05;;;1.90;;
41532;SDS011;27262;-35.248;149.138;2023-02-18T05:19:07;1.90;;;1.80;;
41532;SDS011;27262;-35.248;149.138;2023-02-18T05:21:41;2.30;;;1.90;;
41532;SDS011;27262;-35.248;149.138;2023-02-18T05:24:12;2.40;;;1.77;;
41532;SDS011;27262;-35.248;149.138;2023-02-18T05:26:42;2.05;;;1.73;;
41532;SDS011;27262;-35.248;149.138;2023-02-18T05:29:13;2.30;;;2.10;;
41532;SDS011;27262;-35.248;149.138;2023-02-18T05:31:43;2.35;;;1.80;;
41532;SDS011;27262;-35.248;149.138;2023-02-18T05:34:13;2.38;;;1.80;;
41532;SDS011;27262;-35.248;149.138;2023-02-18T05:36:44;1.90;;;1.50;;
41532;SDS011;27262;-35.248;149.138;2023-02-18T05:39:14;3.17;;;1.83;;
41532;SDS011;27262;-35.248;149.138;2023-02-18T05:41:44;3.95;;;1.75;;
41532;SDS011;27262;-35.248;149.138;2023-02-18T05:44:14;1.98;;;1.77;;
41532;SDS011;27262;-35.248;149.138;2023-02-18T05:47:02;3.35;;;1.45;;
41532;SDS011;27262;-35.248;149.138;2023-02-18T05:49:37;2.65;;;1.95;;
41532;SDS011;27262;-35.248;149.138;2023-02-18T05:52:10;3.38;;;1.92;;
41532;SDS011;27262;-35.248;149.138;2023-02-18T05:54:40;1.67;;;1.58;;
41532;SDS011;27262;-35.248;149.138;2023-02-18T05:57:12;2.35;;;1.92;;
41532;SDS011;27262;-35.248;149.138;2023-02-18T05:59:42;4.85;;;1.98;;
41532;SDS011;27262;-35.248;149.138;2023-02-18T06:02:13;4.25;;;1.65;;
41532;SDS011;27262;-35.248;149.138;2023-02-18T06:04:43;2.33;;;1.85;;
41532;SDS011;27262;-35.248;149.138;2023-02-18T06:07:13;2.15;;;1.70;;
41532;SDS011;27262;-35.248;149.138;2023-02-18T06:09:44;3.70;;;1.77;;
41532;SDS011;27262;-35.248;149.138;2023-02-18T06:12:15;3.30;;;1.83;;
41532;SDS011;27262;-35.248;149.138;2023-02-18T06:14:45;3.22;;;1.98;;
41532;SDS011;27262;-35.248;149.138;2023-02-18T06:17:16;1.65;;;1.55;;
41532;SDS011;27262;-35.248;149.138;2023-02-18T06:19:46;2.05;;;1.67;;
41532;SDS011;27262;-35.248;149.138;2023-02-18T06:22:17;3.13;;;1.52;;
41532;SDS011;27262;-35.248;149.138;2023-02-18T06:24:47;4.00;;;1.83;;
41532;SDS011;27262;-35.248;149.138;2023-02-18T06:27:17;6.10;;;1.92;;
41532;SDS011;27262;-35.248;149.138;2023-02-18T06:29:49;2.05;;;1.58;;
41532;SDS011;27262;-35.248;149.138;2023-02-18T06:32:19;2.05;;;1.85;;
41532;SDS011;27262;-35.248;149.138;2023-02-18T06:34:49;1.95;;;1.40;;
41532;SDS011;27262;-35.248;149.138;2023-02-18T06:37:20;3.08;;;1.42;;
41532;SDS011;27262;-35.248;149.138;2023-02-18T06:39:50;2.40;;;1.70;;
41532;SDS011;27262;-35.248;149.138;2023-02-18T06:42:20;2.10;;;1.50;;
41532;SDS011;27262;-35.248;149.138;2023-02-18T06:44:51;1.90;;;1.63;;
41532;SDS011;27262;-35.248;149.138;2023-02-18T06:47:21;2.95;;;1.90;;
41532;SDS011;27262;-35.248;149.138;2023-02-18T06:49:51;1.65;;;1.50;;
41532;SDS011;27262;-35.248;149.138;2023-02-18T06:52:22;2.55;;;1.40;;
41532;SDS011;27262;-35.248;149.138;2023-02-18T06:54:52;1.83;;;1.55;;
41532;SDS011;27262;-35.248;149.138;2023-02-18T06:57:22;1.58;;;1.45;;
41532;SDS011;27262;-35.248;149.138;2023-02-18T06:59:53;2.78;;;1.85;;
41532;SDS011;27262;-35.248;149.138;2023-02-18T07:02:23;2.05;;;1.58;;
41532;SDS011;27262;-35.248;149.138;2023-02-18T07:04:53;2.85;;;1.90;;
41532;SDS011;27262;-35.248;149.138;2023-02-18T07:07:23;2.53;;;1.83;;
41532;SDS011;27262;-35.248;149.138;2023-02-18T07:09:54;2.20;;;1.63;;
41532;SDS011;27262;-35.248;149.138;2023-02-18T07:12:25;3.35;;;1.60;;
41532;SDS011;27262;-35.248;149.138;2023-02-18T07:14:57;3.15;;;1.85;;
41532;SDS011;27262;-35.248;149.138;2023-02-18T07:17:27;3.63;;;1.60;;
41532;SDS011;27262;-35.248;149.138;2023-02-18T07:19:58;3.78;;;1.80;;
41532;SDS011;27262;-35.248;149.138;2023-02-18T07:22:28;3.03;;;1.90;;
41532;SDS011;27262;-35.248;149.138;2023-02-18T07:24:59;3.13;;;1.80;;
41532;SDS011;27262;-35.248;149.138;2023-02-18T07:27:29;2.88;;;1.58;;
41532;SDS011;27262;-35.248;149.138;2023-02-18T07:29:59;1.70;;;1.60;;
41532;SDS011;27262;-35.248;149.138;2023-02-18T07:32:30;2.00;;;1.85;;
41532;SDS011;27262;-35.248;149.138;2023-02-18T07:35:01;2.08;;;1.88;;
41532;SDS011;27262;-35.248;149.138;2023-02-18T07:37:32;2.38;;;1.60;;
41532;SDS011;27262;-35.248;149.138;2023-02-18T07:40:03;2.85;;;1.40;;
41532;SDS011;27262;-35.248;149.138;2023-02-18T07:42:34;2.65;;;1.70;;
41532;SDS011;27262;-35.248;149.138;2023-02-18T07:45:04;2.03;;;1.50;;
41532;SDS011;27262;-35.248;149.138;2023-02-18T07:47:35;1.98;;;1.52;;
41532;SDS011;27262;-35.248;149.138;2023-02-18T07:50:06;1.58;;;1.40;;
41532;SDS011;27262;-35.248;149.138;2023-02-18T07:52:36;5.72;;;1.55;;
41532;SDS011;27262;-35.248;149.138;2023-02-18T07:55:07;3.53;;;1.52;;
41532;SDS011;27262;-35.248;149.138;2023-02-18T07:57:38;1.83;;;1.35;;
41532;SDS011;27262;-35.248;149.138;2023-02-18T08:00:24;2.08;;;1.30;;
41532;SDS011;27262;-35.248;149.138;2023-02-18T08:02:55;2.53;;;1.83;;
41532;SDS011;27262;-35.248;149.138;2023-02-18T08:05:25;2.67;;;1.75;;
41532;SDS011;27262;-35.248;149.138;2023-02-18T08:07:55;2.05;;;1.50;;
41532;SDS011;27262;-35.248;149.138;2023-02-18T08:10:26;1.55;;;1.45;;
41532;SDS011;27262;-35.248;149.138;2023-02-18T08:12:57;2.28;;;1.40;;
41532;SDS011;27262;-35.248;149.138;2023-02-18T08:15:27;2.75;;;1.38;;
41532;SDS011;27262;-35.248;149.138;2023-02-18T08:17:57;1.92;;;1.50;;
41532;SDS011;27262;-35.248;149.138;2023-02-18T08:20:28;3.15;;;1.85;;
41532;SDS011;27262;-35.248;149.138;2023-02-18T08:22:58;4.15;;;1.50;;
41532;SDS011;27262;-35.248;149.138;2023-02-18T08:25:28;2.28;;;1.55;;
41532;SDS011;27262;-35.248;149.138;2023-02-18T08:28:00;1.92;;;1.63;;
41532;SDS011;27262;-35.248;149.138;2023-02-18T08:30:32;4.25;;;1.40;;
41532;SDS011;27262;-35.248;149.138;2023-02-18T08:33:04;2.42;;;1.60;;
41532;SDS011;27262;-35.248;149.138;2023-02-18T08:35:35;2.67;;;1.70;;
41532;SDS011;27262;-35.248;149.138;2023-02-18T08:38:05;2.38;;;1.50;;
41532;SDS011;27262;-35.248;149.138;2023-02-18T08:40:36;1.88;;;1.55;;
41532;SDS011;27262;-35.248;149.138;2023-02-18T08:43:09;2.25;;;1.50;;
41532;SDS011;27262;-35.248;149.138;2023-02-18T08:45:41;1.75;;;1.45;;
41532;SDS011;27262;-35.248;149.138;2023-02-18T08:48:14;2.22;;;1.70;;
41532;SDS011;27262;-35.248;149.138;2023-02-18T08:50:46;2.65;;;1.40;;
41532;SDS011;27262;-35.248;149.138;2023-02-18T08:53:17;2.05;;;1.58;;
41532;SDS011;27262;-35.248;149.138;2023-02-18T08:55:48;1.70;;;1.58;;
41532;SDS011;27262;-35.248;149.138;2023-02-18T08:58:19;1.77;;;1.52;;
41532;SDS011;27262;-35.248;149.138;2023-02-18T09:00:50;2.22;;;1.65;;
41532;SDS011;27262;-35.248;149.138;2023-02-18T09:03:21;2.10;;;1.90;;
41532;SDS011;27262;-35.248;149.138;2023-02-18T09:05:51;1.55;;;1.45;;
41532;SDS011;27262;-35.248;149.138;2023-02-18T09:08:22;2.22;;;2.00;;
41532;SDS011;27262;-35.248;149.138;2023-02-18T09:10:59;1.63;;;1.42;;
41532;SDS011;27262;-35.248;149.138;2023-02-18T09:13:33;2.65;;;1.60;;
41532;SDS011;27262;-35.248;149.138;2023-02-18T09:16:06;1.83;;;1.60;;
41532;SDS011;27262;-35.248;149.138;2023-02-18T09:18:41;2.65;;;1.80;;
41532;SDS011;27262;-35.248;149.138;2023-02-18T09:21:13;2.97;;;1.38;;
41532;SDS011;27262;-35.248;149.138;2023-02-18T09:23:46;3.42;;;2.03;;
41532;SDS011;27262;-35.248;149.138;2023-02-18T09:26:18;3.33;;;1.58;;
41532;SDS011;27262;-35.248;149.138;2023-02-18T09:28:51;1.90;;;1.40;;
41532;SDS011;27262;-35.248;149.138;2023-02-18T09:31:23;3.25;;;1.70;;
41532;SDS011;27262;-35.248;149.138;2023-02-18T09:33:58;2.67;;;1.20;;
41532;SDS011;27262;-35.248;149.138;2023-02-18T09:36:30;2.30;;;1.30;;
41532;SDS011;27262;-35.248;149.138;2023-02-18T09:39:00;2.88;;;1.35;;
41532;SDS011;27262;-35.248;149.138;2023-02-18T09:46:45;3.53;;;2.10;;
41532;SDS011;27262;-35.248;149.138;2023-02-18T09:49:31;4.57;;;2.42;;
41532;SDS011;27262;-35.248;149.138;2023-02-18T09:52:27;7.45;;;3.13;;
41532;SDS011;27262;-35.248;149.138;2023-02-18T09:55:05;3.17;;;2.08;;
41532;SDS011;27262;-35.248;149.138;2023-02-18T09:57:53;2.38;;;1.27;;
41532;SDS011;27262;-35.248;149.138;2023-02-18T10:01:04;1.73;;;0.90;;
41532;SDS011;27262;-35.248;149.138;2023-02-18T10:03:44;2.78;;;1.38;;
41532;SDS011;27262;-35.248;149.138;2023-02-18T10:06:17;5.13;;;1.73;;
41532;SDS011;27262;-35.248;149.138;2023-02-18T10:08:59;3.67;;;2.22;;
41532;SDS011;27262;-35.248;149.138;2023-02-18T10:11:55;4.97;;;3.00;;
41532;SDS011;27262;-35.248;149.138;2023-02-18T10:14:31;6.03;;;3.53;;
41532;SDS011;27262;-35.248;149.138;2023-02-18T10:17:04;9.18;;;4.28;;
41532;SDS011;27262;-35.248;149.138;2023-02-18T10:19:36;7.93;;;4.60;;
41532;SDS011;27262;-35.248;149.138;2023-02-18T10:22:11;8.90;;;4.70;;
41532;SDS011;27262;-35.248;149.138;2023-02-18T10:24:53;6.63;;;5.07;;
41532;SDS011;27262;-35.248;149.138;2023-02-18T10:27:29;6.07;;;3.60;;
41532;SDS011;27262;-35.248;149.138;2023-02-18T10:30:15;4.15;;;2.70;;
41532;SDS011;27262;-35.248;149.138;2023-02-18T10:32:55;7.07;;;2.70;;
41532;SDS011;27262;-35.248;149.138;2023-02-18T10:35:51;5.85;;;3.88;;
41532;SDS011;27262;-35.248;149.138;2023-02-18T10:41:36;4.70;;;3.00;;
41532;SDS011;27262;-35.248;149.138;2023-02-18T10:47:08;5.30;;;2.80;;
41532;SDS011;27262;-35.248;149.138;2023-02-18T10:52:29;5.20;;;3.17;;
41532;SDS011;27262;-35.248;149.138;2023-02-18T10:55:13;2.97;;;2.67;;
41532;SDS011;27262;-35.248;149.138;2023-02-18T10:57:53;4.38;;;3.00;;
41532;SDS011;27262;-35.248;149.138;2023-02-18T11:00:25;7.05;;;3.08;;
41532;SDS011;27262;-35.248;149.138;2023-02-18T11:03:18;4.07;;;3.20;;
41532;SDS011;27262;-35.248;149.138;2023-02-18T11:05:53;8.40;;;3.13;;
41532;SDS011;27262;-35.248;149.138;2023-02-18T11:08:28;6.07;;;3.25;;
41532;SDS011;27262;-35.248;149.138;2023-02-18T11:11:13;4.07;;;2.80;;
41532;SDS011;27262;-35.248;149.138;2023-02-18T11:13:52;5.65;;;2.70;;
41532;SDS011;27262;-35.248;149.138;2023-02-18T11:16:36;5.80;;;2.60;;
41532;SDS011;27262;-35.248;149.138;2023-02-18T11:22:12;3.95;;;2.78;;
41532;SDS011;27262;-35.248;149.138;2023-02-18T11:24:55;3.22;;;2.72;;
41532;SDS011;27262;-35.248;149.138;2023-02-18T11:27:45;2.78;;;2.58;;
41532;SDS011;27262;-35.248;149.138;2023-02-18T11:30:39;3.00;;;2.80;;
41532;SDS011;27262;-35.248;149.138;2023-02-18T11:36:49;4.10;;;2.65;;
41532;SDS011;27262;-35.248;149.138;2023-02-18T11:39:03;3.63;;;2.63;;
41532;SDS011;27262;-35.248;149.138;2023-02-18T11:41:43;5.93;;;2.65;;
41532;SDS011;27262;-35.248;149.138;2023-02-18T11:44:39;3.47;;;2.40;;
41532;SDS011;27262;-35.248;149.138;2023-02-18T11:50:01;4.28;;;3.00;;
41532;SDS011;27262;-35.248;149.138;2023-02-18T11:52:39;3.70;;;2.50;;
41532;SDS011;27262;-35.248;149.138;2023-02-18T11:55:21;2.60;;;2.20;;
41532;SDS011;27262;-35.248;149.138;2023-02-18T11:58:00;5.15;;;2.58;;
41532;SDS011;27262;-35.248;149.138;2023-02-18T12:00:43;2.97;;;2.63;;
41532;SDS011;27262;-35.248;149.138;2023-02-18T12:06:44;2.53;;;2.30;;
41532;SDS011;27262;-35.248;149.138;2023-02-18T12:09:34;2.72;;;2.50;;
41532;SDS011;27262;-35.248;149.138;2023-02-18T12:14:44;2.75;;;2.30;;
41532;SDS011;27262;-35.248;149.138;2023-02-18T12:17:34;3.67;;;2.55;;
41532;SDS011;27262;-35.248;149.138;2023-02-18T12:20:11;4.15;;;3.10;;
41532;SDS011;27262;-35.248;149.138;2023-02-18T12:31:39;3.13;;;2.53;;
41532;SDS011;27262;-35.248;149.138;2023-02-18T12:46:32;3.13;;;2.65;;
41532;SDS011;27262;-35.248;149.138;2023-02-18T12:58:13;2.88;;;2.58;;
41532;SDS011;27262;-35.248;149.138;2023-02-18T13:01:17;3.28;;;2.97;;
41532;SDS011;27262;-35.248;149.138;2023-02-18T13:04:17;3.15;;;2.72;;
41532;SDS011;27262;-35.248;149.138;2023-02-18T13:13:03;3.17;;;2.88;;
41532;SDS011;27262;-35.248;149.138;2023-02-18T13:16:09;3.95;;;2.80;;
41532;SDS011;27262;-35.248;149.138;2023-02-18T13:18:43;3.15;;;2.78;;
41532;SDS011;27262;-35.248;149.138;2023-02-18T13:21:21;3.08;;;2.88;;
41532;SDS011;27262;-35.248;149.138;2023-02-18T13:24:02;3.50;;;3.13;;
41532;SDS011;27262;-35.248;149.138;2023-02-18T13:26:39;3.60;;;3.30;;
41532;SDS011;27262;-35.248;149.138;2023-02-18T13:37:43;5.47;;;3.60;;
41532;SDS011;27262;-35.248;149.138;2023-02-18T13:40:25;3.58;;;3.25;;
41532;SDS011;27262;-35.248;149.138;2023-02-18T13:46:10;3.95;;;3.40;;
41532;SDS011;27262;-35.248;149.138;2023-02-18T13:51:32;4.28;;;3.60;;
41532;SDS011;27262;-35.248;149.138;2023-02-18T13:56:52;5.65;;;3.60;;
41532;SDS011;27262;-35.248;149.138;2023-02-18T13:59:39;4.97;;;3.55;;
41532;SDS011;27262;-35.248;149.138;2023-02-18T14:04:51;5.88;;;3.70;;
41532;SDS011;27262;-35.248;149.138;2023-02-18T14:09:57;4.82;;;3.70;;
41532;SDS011;27262;-35.248;149.138;2023-02-18T14:12:36;5.35;;;3.42;;
41532;SDS011;27262;-35.248;149.138;2023-02-18T14:17:48;3.90;;;3.30;;
41532;SDS011;27262;-35.248;149.138;2023-02-18T14:34:48;5.65;;;3.72;;
41532;SDS011;27262;-35.248;149.138;2023-02-18T14:42:37;4.45;;;3.55;;
41532;SDS011;27262;-35.248;149.138;2023-02-18T14:48:54;4.28;;;3.25;;
41532;SDS011;27262;-35.248;149.138;2023-02-18T14:51:41;4.40;;;3.15;;
41532;SDS011;27262;-35.248;149.138;2023-02-18T14:54:19;3.80;;;3.33;;
41532;SDS011;27262;-35.248;149.138;2023-02-18T14:59:45;3.72;;;3.17;;
41532;SDS011;27262;-35.248;149.138;2023-02-18T15:02:19;5.38;;;3.80;;
41532;SDS011;27262;-35.248;149.138;2023-02-18T15:04:52;4.68;;;3.42;;
41532;SDS011;27262;-35.248;149.138;2023-02-18T15:07:23;3.90;;;3.20;;
41532;SDS011;27262;-35.248;149.138;2023-02-18T15:09:54;4.85;;;3.75;;
41532;SDS011;27262;-35.248;149.138;2023-02-18T15:12:25;4.78;;;3.30;;
41532;SDS011;27262;-35.248;149.138;2023-02-18T15:14:58;5.13;;;3.20;;
41532;SDS011;27262;-35.248;149.138;2023-02-18T15:17:32;5.10;;;3.38;;
41532;SDS011;27262;-35.248;149.138;2023-02-18T15:20:03;4.43;;;3.35;;
41532;SDS011;27262;-35.248;149.138;2023-02-18T15:22:36;3.22;;;2.85;;
41532;SDS011;27262;-35.248;149.138;2023-02-18T15:25:08;3.92;;;3.33;;
41532;SDS011;27262;-35.248;149.138;2023-02-18T15:27:42;5.75;;;3.60;;
41532;SDS011;27262;-35.248;149.138;2023-02-18T15:32:51;5.43;;;3.60;;
41532;SDS011;27262;-35.248;149.138;2023-02-18T15:35:25;3.97;;;3.15;;
41532;SDS011;27262;-35.248;149.138;2023-02-18T15:37:59;5.10;;;3.20;;
41532;SDS011;27262;-35.248;149.138;2023-02-18T15:40:33;5.05;;;3.17;;
41532;SDS011;27262;-35.248;149.138;2023-02-18T15:43:05;5.18;;;3.55;;
41532;SDS011;27262;-35.248;149.138;2023-02-18T15:45:39;3.75;;;2.95;;
41532;SDS011;27262;-35.248;149.138;2023-02-18T15:51:09;3.95;;;2.95;;
41532;SDS011;27262;-35.248;149.138;2023-02-18T15:53:48;3.83;;;2.70;;
41532;SDS011;27262;-35.248;149.138;2023-02-18T15:56:30;6.10;;;3.30;;
41532;SDS011;27262;-35.248;149.138;2023-02-18T16:02:02;4.53;;;3.05;;
41532;SDS011;27262;-35.248;149.138;2023-02-18T16:04:52;3.58;;;2.90;;
41532;SDS011;27262;-35.248;149.138;2023-02-18T16:07:35;3.38;;;2.83;;
41532;SDS011;27262;-35.248;149.138;2023-02-18T16:10:20;4.55;;;3.30;;
41532;SDS011;27262;-35.248;149.138;2023-02-18T16:12:53;3.40;;;3.10;;
41532;SDS011;27262;-35.248;149.138;2023-02-18T16:15:29;5.32;;;3.20;;
41532;SDS011;27262;-35.248;149.138;2023-02-18T16:18:05;3.97;;;3.05;;
41532;SDS011;27262;-35.248;149.138;2023-02-18T16:20:56;4.25;;;2.80;;
41532;SDS011;27262;-35.248;149.138;2023-02-18T16:23:39;3.53;;;2.83;;
41532;SDS011;27262;-35.248;149.138;2023-02-18T16:26:22;3.40;;;3.03;;
41532;SDS011;27262;-35.248;149.138;2023-02-18T16:29:00;4.43;;;3.13;;
41532;SDS011;27262;-35.248;149.138;2023-02-18T16:31:40;5.53;;;3.33;;
41532;SDS011;27262;-35.248;149.138;2023-02-18T16:34:12;3.40;;;2.95;;
41532;SDS011;27262;-35.248;149.138;2023-02-18T16:36:45;5.18;;;3.15;;
41532;SDS011;27262;-35.248;149.138;2023-02-18T16:39:33;2.83;;;2.50;;
41532;SDS011;27262;-35.248;149.138;2023-02-18T16:42:10;5.00;;;3.10;;
41532;SDS011;27262;-35.248;149.138;2023-02-18T16:44:41;5.70;;;2.97;;
41532;SDS011;27262;-35.248;149.138;2023-02-18T16:47:13;3.75;;;3.00;;
41532;SDS011;27262;-35.248;149.138;2023-02-18T16:49:45;5.07;;;3.00;;
41532;SDS011;27262;-35.248;149.138;2023-02-18T16:52:18;3.60;;;2.85;;
41532;SDS011;27262;-35.248;149.138;2023-02-18T16:54:48;3.70;;;2.97;;
41532;SDS011;27262;-35.248;149.138;2023-02-18T16:57:20;3.70;;;3.10;;
41532;SDS011;27262;-35.248;149.138;2023-02-18T16:59:51;3.17;;;2.88;;
41532;SDS011;27262;-35.248;149.138;2023-02-18T17:02:21;3.95;;;2.67;;
41532;SDS011;27262;-35.248;149.138;2023-02-18T17:04:51;4.40;;;3.05;;
41532;SDS011;27262;-35.248;149.138;2023-02-18T17:07:24;4.13;;;2.85;;
41532;SDS011;27262;-35.248;149.138;2023-02-18T17:09:55;4.30;;;2.90;;
41532;SDS011;27262;-35.248;149.138;2023-02-18T17:12:25;4.53;;;3.30;;
41532;SDS011;27262;-35.248;149.138;2023-02-18T17:14:55;3.83;;;3.20;;
41532;SDS011;27262;-35.248;149.138;2023-02-18T17:17:26;4.50;;;3.00;;
41532;SDS011;27262;-35.248;149.138;2023-02-18T17:19:56;3.22;;;2.72;;
41532;SDS011;27262;-35.248;149.138;2023-02-18T17:22:26;3.60;;;2.50;;
41532;SDS011;27262;-35.248;149.138;2023-02-18T17:24:56;4.32;;;3.20;;
41532;SDS011;27262;-35.248;149.138;2023-02-18T17:27:27;3.90;;;3.35;;
41532;SDS011;27262;-35.248;149.138;2023-02-18T17:29:57;3.60;;;2.53;;
41532;SDS011;27262;-35.248;149.138;2023-02-18T17:32:27;3.38;;;3.03;;
41532;SDS011;27262;-35.248;149.138;2023-02-18T17:34:57;3.63;;;2.90;;
41532;SDS011;27262;-35.248;149.138;2023-02-18T17:37:28;4.55;;;2.80;;
41532;SDS011;27262;-35.248;149.138;2023-02-18T17:39:58;3.72;;;3.05;;